createdAt,value
2018-11-20T00:00:40.726Z,-0.38
2018-11-20T00:03:49.711Z,-0.51
2018-11-20T00:06:58.918Z,-0.55
2018-11-20T00:10:08.585Z,-0.69
2018-11-20T00:13:17.324Z,-0.51
2018-11-20T00:16:26.349Z,-0.45
2018-11-20T00:19:26.730Z,-0.61
2018-11-20T00:22:35.427Z,-0.80
2018-11-20T00:25:44.410Z,-0.80
2018-11-20T00:28:40.719Z,-0.80
2018-11-20T00:31:49.449Z,-0.69
2018-11-20T00:34:58.192Z,-0.51
2018-11-20T00:38:06.929Z,-0.51
2018-11-20T00:41:16.548Z,-0.39
2018-11-20T00:44:18.696Z,-0.32
2018-11-20T00:47:27.800Z,-0.52
2018-11-20T00:50:36.518Z,-0.52
2018-11-20T00:53:45.277Z,-0.49
2018-11-20T00:56:44.735Z,-0.50
2018-11-20T00:59:55.553Z,-0.47
2018-11-20T01:03:04.317Z,-0.49
2018-11-20T01:06:06.379Z,-0.49
2018-11-20T01:09:15.440Z,-0.49
2018-11-20T01:12:25.231Z,-0.37
2018-11-20T01:15:35.194Z,-0.56
2018-11-20T01:18:32.665Z,-0.61
2018-11-20T01:21:37.621Z,-0.70
2018-11-20T01:24:45.066Z,-0.74
2018-11-20T01:27:54.828Z,-0.56
2018-11-20T01:31:04.195Z,-0.61
2018-11-20T01:34:13.366Z,-0.61
2018-11-20T01:37:22.353Z,-0.53
2018-11-20T01:40:29.675Z,-0.54
2018-11-20T01:43:38.408Z,-0.44
2018-11-20T01:46:38.315Z,-0.44
2018-11-20T01:49:47.326Z,-0.50
2018-11-20T01:52:56.307Z,-0.44
2018-11-20T01:56:07.312Z,-0.36
2018-11-20T01:59:15.225Z,-0.18
2018-11-20T02:02:23.996Z,-0.18
2018-11-20T02:05:32.716Z,-0.28
2018-11-20T02:08:41.448Z,-0.21
2018-11-20T02:11:50.192Z,-0.16
2018-11-20T02:14:59.192Z,-0.27
2018-11-20T02:18:12.933Z,-0.23
2018-11-20T02:21:21.910Z,-0.11
2018-11-20T02:24:31.029Z,-0.03
2018-11-20T02:27:39.747Z,-0.10
2018-11-20T02:30:49.172Z,-0.10
2018-11-20T02:33:58.157Z,-0.10
2018-11-20T02:37:07.697Z,-0.11
2018-11-20T02:40:16.677Z,-0.11
2018-11-20T02:43:13.159Z,-0.08
2018-11-20T02:46:25.664Z,0.01
2018-11-20T02:49:34.843Z,0.08
2018-11-20T02:52:43.599Z,-0.19
2018-11-20T02:55:52.827Z,-0.15
2018-11-20T02:59:02.701Z,0.03
2018-11-20T03:02:11.842Z,0.03
2018-11-20T03:05:20.553Z,0.17
2018-11-20T03:08:27.952Z,0.17
2018-11-20T03:15:06.621Z,0.13
2018-11-20T03:18:17.537Z,0.13
2018-11-20T03:21:26.513Z,0.02
2018-11-20T03:24:35.480Z,0.02
2018-11-20T03:27:44.537Z,-0.01
2018-11-20T03:31:13.115Z,-0.01
2018-11-20T03:34:22.374Z,0.15
2018-11-20T03:37:31.582Z,0.07
2018-11-20T03:40:40.360Z,0.15
2018-11-20T03:43:49.331Z,0.02
2018-11-20T03:47:17.335Z,0.14
2018-11-20T03:50:26.560Z,0.27
2018-11-20T03:53:35.288Z,0.27
2018-11-20T03:56:44.858Z,0.10
2018-11-20T03:59:54.000Z,0.16
2018-11-20T04:03:02.708Z,0.18
2018-11-20T04:06:11.450Z,0.18
2018-11-20T04:09:20.652Z,0.13
2018-11-20T04:12:30.265Z,0.19
2018-11-20T04:15:39.950Z,0.42
2018-11-20T04:18:49.383Z,0.38
2018-11-20T04:22:17.642Z,0.16
2018-11-20T04:25:26.864Z,0.10
2018-11-20T04:28:25.518Z,0.10
2018-11-20T04:32:15.051Z,0.19
2018-11-20T04:35:25.843Z,0.27
2018-11-20T04:38:34.826Z,0.28
2018-11-20T04:41:44.321Z,0.45
2018-11-20T04:44:53.297Z,0.45
2018-11-20T04:48:02.332Z,0.46
2018-11-20T04:51:11.335Z,0.41
2018-11-20T04:54:20.056Z,0.47
2018-11-20T04:57:28.816Z,0.59
2018-11-20T05:00:37.471Z,0.51
2018-11-20T05:04:05.918Z,0.58
2018-11-20T05:07:14.662Z,0.58
2018-11-20T05:10:24.683Z,0.58
2018-11-20T05:13:27.715Z,0.51
2018-11-20T05:16:55.667Z,0.51
2018-11-20T05:20:04.417Z,0.59
2018-11-20T05:23:13.403Z,0.55
2018-11-20T05:26:23.023Z,0.55
2018-11-20T05:29:32.037Z,0.47
2018-11-20T05:33:00.065Z,0.57
2018-11-20T05:36:09.283Z,0.68
2018-11-20T05:39:19.917Z,0.71
2018-11-20T05:42:29.176Z,0.63
2018-11-20T05:45:38.470Z,0.64
2018-11-20T05:48:47.241Z,0.64
2018-11-20T05:51:56.024Z,0.83
2018-11-20T05:54:51.951Z,0.83
2018-11-20T05:58:00.675Z,0.86
2018-11-20T06:01:14.236Z,0.89
2018-11-20T06:04:20.963Z,0.89
2018-11-20T06:07:29.945Z,0.87
2018-11-20T06:10:39.044Z,0.87
2018-11-20T06:13:47.770Z,1.04
2018-11-20T06:16:56.772Z,1.04
2018-11-20T06:20:05.760Z,1.08
2018-11-20T06:23:15.018Z,1.07
2018-11-20T06:26:23.749Z,1.07
2018-11-20T06:29:32.743Z,1.08
2018-11-20T06:32:41.771Z,1.19
2018-11-20T06:35:51.848Z,1.36
2018-11-20T06:39:00.821Z,1.25
2018-11-20T06:42:10.064Z,1.40
2018-11-20T06:45:18.776Z,1.52
2018-11-20T06:48:28.473Z,1.52
2018-11-20T06:51:37.465Z,1.47
2018-11-20T06:54:46.398Z,1.48
2018-11-20T06:57:50.315Z,1.58
2018-11-20T07:00:59.480Z,1.58
2018-11-20T07:04:08.536Z,1.41
2018-11-20T07:07:18.375Z,1.50
2018-11-20T07:10:27.375Z,1.50
2018-11-20T07:13:35.864Z,1.64
2018-11-20T07:16:57.911Z,1.46
2018-11-20T07:20:10.669Z,1.32
2018-11-20T07:23:11.277Z,1.48
2018-11-20T07:26:20.030Z,1.28
2018-11-20T07:32:24.016Z,1.30
2018-11-20T07:35:38.245Z,1.36
2018-11-20T07:38:45.594Z,1.36
2018-11-20T07:41:58.248Z,1.36
2018-11-20T07:45:25.370Z,1.38
2018-11-20T07:48:34.824Z,1.38
2018-11-20T07:52:03.065Z,1.17
2018-11-20T07:55:12.345Z,1.31
2018-11-20T07:58:21.580Z,1.31
2018-11-20T08:01:37.284Z,1.39
2018-11-20T08:04:46.246Z,1.39
2018-11-20T08:07:54.971Z,1.43
2018-11-20T08:11:03.680Z,1.42
2018-11-20T08:14:03.099Z,1.58
2018-11-20T08:17:11.821Z,1.74
2018-11-20T08:20:20.803Z,1.72
2018-11-20T08:23:29.736Z,1.68
2018-11-20T08:26:39.309Z,1.79
2018-11-20T08:29:48.617Z,2.05
2018-11-20T08:32:57.697Z,2.05
2018-11-20T08:36:06.936Z,2.21
2018-11-20T08:39:15.645Z,2.38
2018-11-20T08:42:25.201Z,2.38
2018-11-20T08:45:35.041Z,2.49
2018-11-20T08:48:35.698Z,2.49
2018-11-20T08:54:41.948Z,2.46
2018-11-20T08:57:51.222Z,2.52
2018-11-20T09:03:29.644Z,2.86
2018-11-20T09:06:38.644Z,3.14
2018-11-20T09:09:47.670Z,3.39
2018-11-20T09:12:57.000Z,3.28
2018-11-20T09:15:58.626Z,3.34
2018-11-20T09:19:13.137Z,3.49
2018-11-20T09:22:25.616Z,3.56
2018-11-20T09:25:34.852Z,3.81
2018-11-20T09:28:43.466Z,3.67
2018-11-20T09:31:52.730Z,3.54
2018-11-20T09:35:02.877Z,3.68
2018-11-20T09:38:12.022Z,3.78
2018-11-20T09:41:21.003Z,3.73
2018-11-20T09:44:50.893Z,3.86
2018-11-20T09:48:00.651Z,3.88
2018-11-20T09:51:10.342Z,3.82
2018-11-20T09:54:19.919Z,3.79
2018-11-20T09:57:29.471Z,3.72
2018-11-20T10:00:38.782Z,3.69
2018-11-20T10:04:06.531Z,3.86
2018-11-20T10:07:15.946Z,3.86
2018-11-20T10:10:26.263Z,3.92
2018-11-20T10:13:35.340Z,4.06
2018-11-20T10:16:44.343Z,4.05
2018-11-20T10:19:53.325Z,4.12
2018-11-20T10:22:56.984Z,4.15
2018-11-20T10:26:06.076Z,4.14
2018-11-20T10:29:14.715Z,4.12
2018-11-20T10:32:23.752Z,4.23
2018-11-20T10:35:32.770Z,4.34
2018-11-20T10:38:42.211Z,4.34
2018-11-20T10:41:51.155Z,4.43
2018-11-20T10:44:59.870Z,4.45
2018-11-20T10:48:08.581Z,4.46
2018-11-20T10:51:18.473Z,4.46
2018-11-20T10:54:27.193Z,4.50
2018-11-20T10:57:31.876Z,4.48
2018-11-20T11:00:41.807Z,4.59
2018-11-20T11:03:50.924Z,4.69
2018-11-20T11:06:59.922Z,4.62
2018-11-20T11:10:09.627Z,4.65
2018-11-20T11:13:18.864Z,4.91
2018-11-20T11:16:28.140Z,4.91
2018-11-20T11:19:36.877Z,4.97
2018-11-20T11:22:45.583Z,4.96
2018-11-20T11:26:13.333Z,4.90
2018-11-20T11:29:22.060Z,4.90
2018-11-20T11:32:31.451Z,4.88
2018-11-20T11:35:40.414Z,4.89
2018-11-20T11:38:49.397Z,5.10
2018-11-20T11:41:49.050Z,5.11
2018-11-20T11:44:58.002Z,5.18
2018-11-20T11:48:06.726Z,5.39
2018-11-20T11:51:15.491Z,5.69
2018-11-20T11:59:35.492Z,6.10
2018-11-20T12:08:46.813Z,6.35
2018-11-20T12:11:56.190Z,6.59
2018-11-20T12:15:05.069Z,6.84
2018-11-20T12:18:13.831Z,6.97
2018-11-20T12:21:22.574Z,6.89
2018-11-20T12:27:02.655Z,7.25
2018-11-20T12:30:10.807Z,7.21
2018-11-20T12:41:04.192Z,7.52
2018-11-20T12:46:42.946Z,8.18
2018-11-20T12:50:10.823Z,8.43
2018-11-20T12:53:21.451Z,8.34
2018-11-20T12:56:28.946Z,8.43
2018-11-20T12:59:37.708Z,8.57
2018-11-20T13:02:46.488Z,8.63
2018-11-20T13:05:55.593Z,8.93
2018-11-20T13:09:05.026Z,8.97
2018-11-20T13:12:14.095Z,8.75
2018-11-20T13:15:11.805Z,8.55
2018-11-20T13:18:20.518Z,8.60
2018-11-20T13:21:29.733Z,8.66
2018-11-20T13:24:38.467Z,8.56
2018-11-20T13:30:20.628Z,8.47
2018-11-20T13:33:20.397Z,8.33
2018-11-20T13:36:47.707Z,8.60
2018-11-20T13:39:56.575Z,8.46
2018-11-20T13:43:06.200Z,8.28
2018-11-20T13:48:51.980Z,8.43
2018-11-20T13:54:39.645Z,7.86
2018-11-20T13:57:48.722Z,7.43
2018-11-20T14:00:57.641Z,7.00
2018-11-20T14:04:07.011Z,6.82
2018-11-20T14:07:15.957Z,6.71
2018-11-20T14:13:00.599Z,6.61
2018-11-20T14:16:10.203Z,6.49
2018-11-20T14:19:18.919Z,6.38
2018-11-20T14:22:27.676Z,6.37
2018-11-20T14:25:55.745Z,6.34
2018-11-20T14:28:54.150Z,6.35
2018-11-20T14:32:21.899Z,6.15
2018-11-20T14:38:01.030Z,6.08
2018-11-20T14:41:13.314Z,6.10
2018-11-20T14:44:14.352Z,5.91
2018-11-20T14:47:17.211Z,5.91
2018-11-20T14:50:26.836Z,5.98
2018-11-20T14:53:36.210Z,5.93
2018-11-20T14:56:45.711Z,5.86
2018-11-20T14:59:54.466Z,5.80
2018-11-20T15:03:03.331Z,5.77
2018-11-20T15:06:12.397Z,5.63
2018-11-20T15:09:21.420Z,5.47
2018-11-20T15:12:30.178Z,5.35
2018-11-20T15:15:41.046Z,5.25
2018-11-20T15:18:59.084Z,5.25
2018-11-20T15:22:08.334Z,5.20
2018-11-20T15:25:17.095Z,5.09
2018-11-20T15:28:16.869Z,5.00
2018-11-20T15:31:26.098Z,4.85
2018-11-20T15:34:35.095Z,4.73
2018-11-20T15:37:33.719Z,4.42
2018-11-20T15:40:29.446Z,4.49
2018-11-20T15:43:41.226Z,4.32
2018-11-20T15:46:50.210Z,4.32
2018-11-20T15:49:52.146Z,4.22
2018-11-20T15:53:01.969Z,4.01
2018-11-20T15:56:10.870Z,3.95
2018-11-20T15:59:40.289Z,3.71
2018-11-20T16:02:49.326Z,3.71
2018-11-20T16:05:59.003Z,3.60
2018-11-20T16:08:56.452Z,3.50
2018-11-20T16:12:05.265Z,3.44
2018-11-20T16:15:14.198Z,3.38
2018-11-20T16:18:11.276Z,3.25
2018-11-20T16:21:21.398Z,3.11
2018-11-20T16:24:30.624Z,3.09
2018-11-20T16:27:39.849Z,2.98
2018-11-20T16:30:50.056Z,3.00
2018-11-20T16:33:57.557Z,2.97
2018-11-20T16:37:07.550Z,2.95
2018-11-20T16:40:16.616Z,2.77
2018-11-20T16:43:25.638Z,2.66
2018-11-20T16:46:34.336Z,2.55
2018-11-20T16:49:43.572Z,2.43
2018-11-20T16:52:52.869Z,2.42
2018-11-20T16:56:45.673Z,2.45
2018-11-20T16:59:54.709Z,2.23
2018-11-20T17:03:02.672Z,2.08
2018-11-20T17:06:11.364Z,1.99
2018-11-20T17:09:19.605Z,1.91
2018-11-20T17:12:27.804Z,1.81
2018-11-20T17:15:36.182Z,1.71
2018-11-20T17:18:44.792Z,1.62
2018-11-20T17:21:52.742Z,1.61
2018-11-20T17:25:01.048Z,1.49
2018-11-20T17:28:09.114Z,1.44
2018-11-20T17:31:18.005Z,1.48
2018-11-20T17:34:26.770Z,1.35
2018-11-20T17:37:35.409Z,1.31
2018-11-20T17:40:43.582Z,1.27
2018-11-20T17:43:42.314Z,1.16
2018-11-20T17:46:50.958Z,1.12
2018-11-20T17:49:58.993Z,1.14
2018-11-20T17:52:58.020Z,1.04
2018-11-20T17:56:22.418Z,1.05
2018-11-20T17:59:14.642Z,0.95
2018-11-20T18:02:22.852Z,0.89
2018-11-20T18:05:30.831Z,0.87
2018-11-20T18:08:39.903Z,0.70
2018-11-20T18:12:07.322Z,0.70
2018-11-20T18:15:34.597Z,0.68
2018-11-20T18:18:42.554Z,0.68
2018-11-20T18:21:46.822Z,0.57
2018-11-20T18:24:55.122Z,0.61
2018-11-20T18:28:12.615Z,0.46
2018-11-20T18:31:21.582Z,0.46
2018-11-20T18:34:29.492Z,0.47
2018-11-20T18:37:38.103Z,0.57
2018-11-20T18:40:46.032Z,0.51
2018-11-20T18:44:13.381Z,0.46
2018-11-20T18:47:40.976Z,0.34
2018-11-20T18:50:49.224Z,0.33
2018-11-20T18:53:57.472Z,0.33
2018-11-20T18:57:05.692Z,0.22
2018-11-20T19:00:05.855Z,0.18
2018-11-20T19:03:14.025Z,0.17
2018-11-20T19:06:22.201Z,0.17
2018-11-20T19:09:49.791Z,0.02
2018-11-20T19:13:09.581Z,0.05
2018-11-20T19:16:18.017Z,0.05
2018-11-20T19:19:45.358Z,0.02
2018-11-20T19:22:53.547Z,-0.13
2018-11-20T19:26:01.794Z,-0.13
2018-11-20T19:29:09.744Z,-0.17
2018-11-20T19:32:09.589Z,-0.15
2018-11-20T19:35:17.818Z,-0.12
2018-11-20T19:38:38.718Z,-0.17
2018-11-20T19:41:47.356Z,-0.29
2018-11-20T19:45:14.697Z,-0.28
2018-11-20T19:48:22.904Z,-0.28
2018-11-20T19:51:31.207Z,-0.31
2018-11-20T19:54:52.972Z,-0.49
2018-11-20T19:58:00.868Z,-0.49
2018-11-20T20:01:09.154Z,-0.34
2018-11-20T20:04:17.567Z,-0.34
2018-11-20T20:07:25.631Z,-0.37
2018-11-20T20:10:33.605Z,-0.33
2018-11-20T20:13:41.842Z,-0.38
2018-11-20T20:17:09.590Z,-0.47
2018-11-20T20:20:17.752Z,-0.57
2018-11-20T20:23:45.358Z,-0.61
2018-11-20T20:26:53.901Z,-0.61
2018-11-20T20:30:02.156Z,-0.66
2018-11-20T20:33:10.534Z,-0.62
2018-11-20T20:36:18.757Z,-0.62
2018-11-20T20:39:28.616Z,-0.62
2018-11-20T20:42:36.555Z,-0.68
2018-11-20T20:46:03.914Z,-0.71
2018-11-20T20:49:11.897Z,-0.71
2018-11-20T20:52:19.778Z,-0.69
2018-11-20T20:55:24.138Z,-0.66
2018-11-20T20:58:32.428Z,-0.74
2018-11-20T21:04:40.258Z,-0.82
2018-11-20T21:07:48.516Z,-0.91
2018-11-20T21:11:16.182Z,-0.99
2018-11-20T21:14:24.600Z,-0.99
2018-11-20T21:17:33.642Z,-0.97
2018-11-20T21:20:41.589Z,-0.95
2018-11-20T21:23:49.989Z,-0.93
2018-11-20T21:27:17.456Z,-0.94
2018-11-20T21:30:26.932Z,-0.94
2018-11-20T21:33:35.203Z,-0.96
2018-11-20T21:36:43.179Z,-1.08
2018-11-20T21:39:51.394Z,-1.00
2018-11-20T21:43:00.055Z,-1.00
2018-11-20T21:46:07.974Z,-0.99
2018-11-20T21:49:16.296Z,-0.98
2018-11-20T21:52:24.556Z,-1.00
2018-11-20T21:55:22.120Z,-1.00
2018-11-20T21:58:29.439Z,-1.04
2018-11-20T22:01:37.388Z,-1.07
2018-11-20T22:04:45.749Z,-1.01
2018-11-20T22:07:44.226Z,-1.01
2018-11-20T22:10:52.764Z,-1.04
2018-11-20T22:14:01.011Z,-1.11
2018-11-20T22:17:09.144Z,-1.12
2018-11-20T22:20:17.337Z,-1.15
2018-11-20T22:23:25.813Z,-1.16
2018-11-20T22:26:33.826Z,-1.15
2018-11-20T22:29:42.024Z,-1.21
2018-11-20T22:32:50.054Z,-1.24
2018-11-20T22:35:58.256Z,-1.23
2018-11-20T22:39:06.205Z,-1.27
2018-11-20T22:42:11.011Z,-1.24
2018-11-20T22:45:15.014Z,-1.27
2018-11-20T22:48:23.075Z,-1.28
2018-11-20T22:51:31.375Z,-1.32
2018-11-20T22:54:40.521Z,-1.34
2018-11-20T22:57:49.414Z,-1.45
2018-11-20T23:01:16.827Z,-1.42
2018-11-20T23:04:24.974Z,-1.42
2018-11-20T23:07:33.156Z,-1.35
2018-11-20T23:10:23.474Z,-1.36
2018-11-20T23:13:13.118Z,-1.39
2018-11-20T23:16:03.258Z,-1.36
2018-11-20T23:18:52.393Z,-1.37
2018-11-20T23:21:41.441Z,-1.51
2018-11-20T23:24:30.522Z,-1.47
2018-11-20T23:27:20.002Z,-1.30
2018-11-20T23:30:11.098Z,-1.11
2018-11-20T23:33:00.839Z,-1.02
2018-11-20T23:35:49.749Z,-0.85
2018-11-20T23:38:38.945Z,-0.79
2018-11-20T23:41:47.468Z,-0.65
2018-11-20T23:44:36.567Z,-0.65
2018-11-20T23:47:26.029Z,-0.68
2018-11-20T23:50:15.142Z,-0.68
2018-11-20T23:53:03.996Z,-0.80
2018-11-20T23:56:12.515Z,-0.73
2018-11-20T23:59:01.348Z,-0.63
